sensor_id;sensor_type;location;lat;lon;timestamp;pressure;altitude;pressure_sealevel;temperature;humidity
50734;BME280;36701;51.798;19.474;2022-08-01T00:01:06;98606.44;;;16.42;100.00
50734;BME280;36701;51.798;19.474;2022-08-01T00:03:32;98572.78;;;16.24;100.00
50734;BME280;36701;51.798;19.474;2022-08-01T00:05:59;98569.91;;;16.34;100.00
50734;BME280;36701;51.798;19.474;2022-08-01T00:08:25;98567.78;;;16.31;100.00
50734;BME280;36701;51.798;19.474;2022-08-01T00:10:52;98599.81;;;16.48;100.00
50734;BME280;36701;51.798;19.474;2022-08-01T00:13:18;98588.94;;;16.34;100.00
50734;BME280;36701;51.798;19.474;2022-08-01T00:15:44;98567.94;;;16.07;100.00
50734;BME280;36701;51.798;19.474;2022-08-01T00:18:11;98521.56;;;15.84;100.00
50734;BME280;36701;51.798;19.474;2022-08-01T00:20:37;98600.09;;;16.32;100.00
50734;BME280;36701;51.798;19.474;2022-08-01T00:23:03;98600.41;;;16.45;100.00
50734;BME280;36701;51.798;19.474;2022-08-01T00:25:31;98599.81;;;16.48;100.00
50734;BME280;36701;51.798;19.474;2022-08-01T00:27:57;98560.91;;;16.20;100.00
50734;BME280;36701;51.798;19.474;2022-08-01T00:30:23;98544.38;;;16.02;100.00
50734;BME280;36701;51.798;19.474;2022-08-01T00:32:50;98597.78;;;16.40;100.00
50734;BME280;36701;51.798;19.474;2022-08-01T00:35:22;98594.56;;;16.38;100.00
50734;BME280;36701;51.798;19.474;2022-08-01T00:37:49;98592.25;;;16.45;100.00
50734;BME280;36701;51.798;19.474;2022-08-01T00:40:15;98592.03;;;16.41;100.00
50734;BME280;36701;51.798;19.474;2022-08-01T00:42:42;98591.84;;;16.38;100.00
50734;BME280;36701;51.798;19.474;2022-08-01T00:45:09;98598.28;;;16.42;100.00
50734;BME280;36701;51.798;19.474;2022-08-01T00:47:35;98604.63;;;16.51;100.00
50734;BME280;36701;51.798;19.474;2022-08-01T00:50:03;98509.13;;;15.83;100.00
50734;BME280;36701;51.798;19.474;2022-08-01T00:52:32;98605.28;;;16.62;100.00
50734;BME280;36701;51.798;19.474;2022-08-01T00:54:59;98597.19;;;16.43;100.00
50734;BME280;36701;51.798;19.474;2022-08-01T00:57:26;98603.44;;;16.57;100.00
50734;BME280;36701;51.798;19.474;2022-08-01T00:59:53;98580.22;;;16.18;100.00
50734;BME280;36701;51.798;19.474;2022-08-01T01:02:19;98568.94;;;16.11;100.00
50734;BME280;36701;51.798;19.474;2022-08-01T01:04:46;98571.66;;;16.11;100.00
50734;BME280;36701;51.798;19.474;2022-08-01T01:07:21;98598.13;;;16.19;100.00
50734;BME280;36701;51.798;19.474;2022-08-01T01:09:56;98603.12;;;16.45;100.00
50734;BME280;36701;51.798;19.474;2022-08-01T01:12:38;98597.38;;;16.32;100.00
50734;BME280;36701;51.798;19.474;2022-08-01T01:15:30;98592.13;;;16.36;100.00
50734;BME280;36701;51.798;19.474;2022-08-01T01:18:04;98596.97;;;16.06;100.00
50734;BME280;36701;51.798;19.474;2022-08-01T01:20:37;98603.16;;;16.12;100.00
50734;BME280;36701;51.798;19.474;2022-08-01T01:26:21;98598.09;;;16.05;100.00
50734;BME280;36701;51.798;19.474;2022-08-01T01:29:06;98584.22;;;16.07;100.00
50734;BME280;36701;51.798;19.474;2022-08-01T01:31:44;98545.72;;;15.67;100.00
50734;BME280;36701;51.798;19.474;2022-08-01T01:34:13;98590.47;;;15.88;100.00
50734;BME280;36701;51.798;19.474;2022-08-01T01:36:42;98586.19;;;15.44;100.00
50734;BME280;36701;51.798;19.474;2022-08-01T01:39:10;98555.63;;;15.19;100.00
50734;BME280;36701;51.798;19.474;2022-08-01T01:41:38;98589.19;;;15.23;100.00
50734;BME280;36701;51.798;19.474;2022-08-01T01:44:05;98558.00;;;15.02;100.00
50734;BME280;36701;51.798;19.474;2022-08-01T01:46:32;98528.22;;;14.78;100.00
50734;BME280;36701;51.798;19.474;2022-08-01T01:49:00;98588.59;;;15.26;100.00
50734;BME280;36701;51.798;19.474;2022-08-01T01:51:28;98557.28;;;15.15;100.00
50734;BME280;36701;51.798;19.474;2022-08-01T01:53:56;98590.66;;;15.35;100.00
50734;BME280;36701;51.798;19.474;2022-08-01T01:56:24;98563.88;;;15.09;100.00
50734;BME280;36701;51.798;19.474;2022-08-01T01:58:54;98597.44;;;15.56;100.00
50734;BME280;36701;51.798;19.474;2022-08-01T02:01:23;98588.63;;;15.65;100.00
50734;BME280;36701;51.798;19.474;2022-08-01T02:03:52;98597.63;;;15.60;100.00
50734;BME280;36701;51.798;19.474;2022-08-01T02:06:20;98501.91;;;14.78;100.00
50734;BME280;36701;51.798;19.474;2022-08-01T02:08:47;98578.31;;;15.23;100.00
50734;BME280;36701;51.798;19.474;2022-08-01T02:11:20;98583.16;;;15.26;100.00
50734;BME280;36701;51.798;19.474;2022-08-01T02:14:00;98587.59;;;15.22;100.00
50734;BME280;36701;51.798;19.474;2022-08-01T02:16:31;98578.28;;;15.29;100.00
50734;BME280;36701;51.798;19.474;2022-08-01T02:18:58;98549.53;;;14.84;100.00
50734;BME280;36701;51.798;19.474;2022-08-01T02:21:30;98589.56;;;14.93;100.00
50734;BME280;36701;51.798;19.474;2022-08-01T02:24:13;98574.91;;;14.94;100.00
50734;BME280;36701;51.798;19.474;2022-08-01T02:26:53;98577.06;;;14.97;100.00
50734;BME280;36701;51.798;19.474;2022-08-01T02:29:37;98575.03;;;14.83;100.00
50734;BME280;36701;51.798;19.474;2022-08-01T02:32:07;98581.91;;;15.00;100.00
50734;BME280;36701;51.798;19.474;2022-08-01T02:34:38;98582.66;;;14.81;100.00
50734;BME280;36701;51.798;19.474;2022-08-01T02:37:05;98495.56;;;14.15;100.00
50734;BME280;36701;51.798;19.474;2022-08-01T02:39:35;98587.38;;;14.70;100.00
50734;BME280;36701;51.798;19.474;2022-08-01T02:42:05;98499.00;;;14.21;100.00
50734;BME280;36701;51.798;19.474;2022-08-01T02:44:41;98552.59;;;14.48;100.00
50734;BME280;36701;51.798;19.474;2022-08-01T02:47:09;98587.12;;;14.67;100.00
50734;BME280;36701;51.798;19.474;2022-08-01T02:49:39;98552.91;;;14.17;100.00
50734;BME280;36701;51.798;19.474;2022-08-01T02:52:10;98581.16;;;14.70;100.00
50734;BME280;36701;51.798;19.474;2022-08-01T02:54:39;98550.44;;;14.50;100.00
50734;BME280;36701;51.798;19.474;2022-08-01T02:57:07;98586.09;;;14.63;100.00
50734;BME280;36701;51.798;19.474;2022-08-01T02:59:36;98591.13;;;14.75;100.00
50734;BME280;36701;51.798;19.474;2022-08-01T03:02:10;98592.34;;;14.87;100.00
50734;BME280;36701;51.798;19.474;2022-08-01T03:04:39;98551.69;;;14.58;100.00
50734;BME280;36701;51.798;19.474;2022-08-01T03:07:08;98571.88;;;14.76;100.00
50734;BME280;36701;51.798;19.474;2022-08-01T03:09:38;98507.59;;;14.28;100.00
50734;BME280;36701;51.798;19.474;2022-08-01T03:12:10;98477.75;;;14.09;100.00
50734;BME280;36701;51.798;19.474;2022-08-01T03:14:39;98518.31;;;14.39;100.00
50734;BME280;36701;51.798;19.474;2022-08-01T03:17:08;98598.78;;;14.92;100.00
50734;BME280;36701;51.798;19.474;2022-08-01T03:19:36;98556.53;;;14.91;100.00
50734;BME280;36701;51.798;19.474;2022-08-01T03:22:06;98594.53;;;15.10;100.00
50734;BME280;36701;51.798;19.474;2022-08-01T03:24:36;98600.03;;;15.23;100.00
50734;BME280;36701;51.798;19.474;2022-08-01T03:27:03;98596.59;;;15.18;100.00
50734;BME280;36701;51.798;19.474;2022-08-01T03:29:32;98551.63;;;14.93;100.00
50734;BME280;36701;51.798;19.474;2022-08-01T03:32:00;98553.09;;;15.04;100.00
50734;BME280;36701;51.798;19.474;2022-08-01T03:34:27;98585.59;;;15.28;100.00
50734;BME280;36701;51.798;19.474;2022-08-01T03:39:41;98544.69;;;15.24;100.00
50734;BME280;36701;51.798;19.474;2022-08-01T03:42:16;98565.56;;;15.05;100.00
50734;BME280;36701;51.798;19.474;2022-08-01T03:44:48;98556.28;;;15.11;100.00
50734;BME280;36701;51.798;19.474;2022-08-01T03:47:22;98597.97;;;15.15;100.00
50734;BME280;36701;51.798;19.474;2022-08-01T03:49:51;98597.38;;;15.18;100.00
50734;BME280;36701;51.798;19.474;2022-08-01T03:52:19;98531.38;;;14.61;100.00
50734;BME280;36701;51.798;19.474;2022-08-01T03:54:47;98598.91;;;15.05;100.00
50734;BME280;36701;51.798;19.474;2022-08-01T03:57:15;98597.75;;;15.12;100.00
50734;BME280;36701;51.798;19.474;2022-08-01T03:59:43;98560.09;;;14.86;100.00
50734;BME280;36701;51.798;19.474;2022-08-01T04:02:10;98600.03;;;15.23;100.00
50734;BME280;36701;51.798;19.474;2022-08-01T04:04:40;98591.91;;;14.99;100.00
50734;BME280;36701;51.798;19.474;2022-08-01T04:07:21;98568.34;;;15.00;100.00
50734;BME280;36701;51.798;19.474;2022-08-01T04:09:48;98557.81;;;15.17;100.00
50734;BME280;36701;51.798;19.474;2022-08-01T04:12:14;98602.94;;;15.08;100.00
50734;BME280;36701;51.798;19.474;2022-08-01T04:14:40;98577.09;;;14.92;100.00
50734;BME280;36701;51.798;19.474;2022-08-01T04:17:07;98535.72;;;14.62;100.00
50734;BME280;36701;51.798;19.474;2022-08-01T04:19:33;98605.13;;;15.06;100.00
50734;BME280;36701;51.798;19.474;2022-08-01T04:22:00;98621.37;;;15.06;100.00
50734;BME280;36701;51.798;19.474;2022-08-01T04:24:28;98611.00;;;15.13;100.00
50734;BME280;36701;51.798;19.474;2022-08-01T04:26:57;98619.78;;;15.48;100.00
50734;BME280;36701;51.798;19.474;2022-08-01T04:29:24;98587.00;;;15.25;100.00
50734;BME280;36701;51.798;19.474;2022-08-01T04:31:54;98540.19;;;14.96;100.00
50734;BME280;36701;51.798;19.474;2022-08-01T04:34:24;98614.59;;;15.71;100.00
50734;BME280;36701;51.798;19.474;2022-08-01T04:36:54;98620.84;;;15.90;100.00
50734;BME280;36701;51.798;19.474;2022-08-01T04:39:23;98583.06;;;15.75;100.00
50734;BME280;36701;51.798;19.474;2022-08-01T04:41:54;98598.81;;;15.92;100.00
50734;BME280;36701;51.798;19.474;2022-08-01T04:44:23;98610.50;;;15.92;100.00
50734;BME280;36701;51.798;19.474;2022-08-01T04:46:50;98609.38;;;15.74;100.00
50734;BME280;36701;51.798;19.474;2022-08-01T04:49:17;98614.91;;;15.88;100.00
50734;BME280;36701;51.798;19.474;2022-08-01T04:51:54;98604.63;;;15.85;100.00
50734;BME280;36701;51.798;19.474;2022-08-01T04:54:27;98543.06;;;15.61;100.00
50734;BME280;36701;51.798;19.474;2022-08-01T04:56:54;98616.66;;;15.79;100.00
50734;BME280;36701;51.798;19.474;2022-08-01T04:59:27;98619.25;;;15.89;100.00
50734;BME280;36701;51.798;19.474;2022-08-01T05:02:10;98617.53;;;16.12;100.00
50734;BME280;36701;51.798;19.474;2022-08-01T05:04:39;98573.09;;;15.89;100.00
50734;BME280;36701;51.798;19.474;2022-08-01T05:07:06;98616.72;;;16.12;100.00
50734;BME280;36701;51.798;19.474;2022-08-01T05:09:33;98622.22;;;16.40;100.00
50734;BME280;36701;51.798;19.474;2022-08-01T05:12:00;98584.97;;;15.93;100.00
50734;BME280;36701;51.798;19.474;2022-08-01T05:14:28;98618.06;;;16.28;100.00
50734;BME280;36701;51.798;19.474;2022-08-01T05:17:07;98608.63;;;16.40;100.00
50734;BME280;36701;51.798;19.474;2022-08-01T05:19:36;98581.47;;;16.40;100.00
50734;BME280;36701;51.798;19.474;2022-08-01T05:22:05;98609.44;;;16.26;100.00
50734;BME280;36701;51.798;19.474;2022-08-01T05:24:34;98585.84;;;16.68;100.00
50734;BME280;36701;51.798;19.474;2022-08-01T05:27:01;98610.94;;;16.79;100.00
50734;BME280;36701;51.798;19.474;2022-08-01T05:29:28;98617.16;;;16.80;100.00
50734;BME280;36701;51.798;19.474;2022-08-01T05:31:54;98607.00;;;16.71;100.00
50734;BME280;36701;51.798;19.474;2022-08-01T05:34:21;98616.25;;;16.84;100.00
50734;BME280;36701;51.798;19.474;2022-08-01T05:36:48;98607.03;;;16.85;100.00
50734;BME280;36701;51.798;19.474;2022-08-01T05:39:14;98598.28;;;16.88;100.00
50734;BME280;36701;51.798;19.474;2022-08-01T05:41:42;98580.50;;;16.63;100.00
50734;BME280;36701;51.798;19.474;2022-08-01T05:44:09;98574.13;;;16.87;100.00
50734;BME280;36701;51.798;19.474;2022-08-01T05:46:35;98608.13;;;17.26;100.00
50734;BME280;36701;51.798;19.474;2022-08-01T05:49:03;98586.16;;;17.36;100.00
50734;BME280;36701;51.798;19.474;2022-08-01T05:51:30;98569.59;;;17.47;100.00
50734;BME280;36701;51.798;19.474;2022-08-01T05:53:57;98605.13;;;17.14;100.00
50734;BME280;36701;51.798;19.474;2022-08-01T05:56:23;98603.69;;;17.30;100.00
50734;BME280;36701;51.798;19.474;2022-08-01T05:58:51;98610.34;;;17.38;100.00
50734;BME280;36701;51.798;19.474;2022-08-01T06:01:23;98588.22;;;17.17;100.00
50734;BME280;36701;51.798;19.474;2022-08-01T06:03:50;98610.16;;;17.20;100.00
50734;BME280;36701;51.798;19.474;2022-08-01T06:06:16;98581.22;;;16.83;100.00
50734;BME280;36701;51.798;19.474;2022-08-01T06:08:43;98606.84;;;17.10;100.00
50734;BME280;36701;51.798;19.474;2022-08-01T06:11:09;98590.81;;;16.94;100.00
50734;BME280;36701;51.798;19.474;2022-08-01T06:13:36;98615.78;;;17.24;100.00
50734;BME280;36701;51.798;19.474;2022-08-01T06:16:02;98579.53;;;17.15;100.00
50734;BME280;36701;51.798;19.474;2022-08-01T06:18:29;98619.88;;;17.63;100.00
50734;BME280;36701;51.798;19.474;2022-08-01T06:20:55;98575.47;;;17.40;100.00
50734;BME280;36701;51.798;19.474;2022-08-01T06:23:22;98608.44;;;17.89;100.00
50734;BME280;36701;51.798;19.474;2022-08-01T06:25:52;98583.78;;;17.94;100.00
50734;BME280;36701;51.798;19.474;2022-08-01T06:28:19;98616.88;;;18.55;100.00
50734;BME280;36701;51.798;19.474;2022-08-01T06:30:46;98585.53;;;18.44;100.00
50734;BME280;36701;51.798;19.474;2022-08-01T06:33:12;98620.94;;;18.35;100.00
50734;BME280;36701;51.798;19.474;2022-08-01T06:35:39;98586.16;;;18.09;100.00
50734;BME280;36701;51.798;19.474;2022-08-01T06:38:05;98609.22;;;18.34;100.00
50734;BME280;36701;51.798;19.474;2022-08-01T06:40:32;98629.53;;;18.51;100.00
50734;BME280;36701;51.798;19.474;2022-08-01T06:42:58;98622.00;;;18.25;100.00
50734;BME280;36701;51.798;19.474;2022-08-01T06:45:24;98632.28;;;18.60;100.00
50734;BME280;36701;51.798;19.474;2022-08-01T06:47:53;98600.38;;;18.29;100.00
50734;BME280;36701;51.798;19.474;2022-08-01T06:50:19;98592.25;;;18.38;100.00
50734;BME280;36701;51.798;19.474;2022-08-01T06:52:45;98636.47;;;18.34;100.00
50734;BME280;36701;51.798;19.474;2022-08-01T06:55:12;98634.16;;;18.50;100.00
50734;BME280;36701;51.798;19.474;2022-08-01T06:57:49;98631.59;;;18.77;100.00
50734;BME280;36701;51.798;19.474;2022-08-01T07:00:17;98625.78;;;19.01;100.00
50734;BME280;36701;51.798;19.474;2022-08-01T07:02:45;98634.19;;;19.13;100.00
50734;BME280;36701;51.798;19.474;2022-08-01T07:05:11;98592.41;;;19.04;100.00
50734;BME280;36701;51.798;19.474;2022-08-01T07:07:38;98614.63;;;19.29;100.00
50734;BME280;36701;51.798;19.474;2022-08-01T07:10:05;98579.72;;;18.68;100.00
50734;BME280;36701;51.798;19.474;2022-08-01T07:12:31;98627.19;;;19.47;100.00
50734;BME280;36701;51.798;19.474;2022-08-01T07:14:59;98613.31;;;19.17;100.00
50734;BME280;36701;51.798;19.474;2022-08-01T07:17:25;98590.78;;;19.03;100.00
50734;BME280;36701;51.798;19.474;2022-08-01T07:19:52;98580.59;;;19.35;100.00
50734;BME280;36701;51.798;19.474;2022-08-01T07:22:20;98589.59;;;19.44;100.00
50734;BME280;36701;51.798;19.474;2022-08-01T07:24:47;98548.66;;;19.35;100.00
50734;BME280;36701;51.798;19.474;2022-08-01T07:27:13;98593.50;;;19.78;100.00
50734;BME280;36701;51.798;19.474;2022-08-01T07:29:40;98585.31;;;19.87;100.00
50734;BME280;36701;51.798;19.474;2022-08-01T07:32:06;98608.63;;;19.84;100.00
50734;BME280;36701;51.798;19.474;2022-08-01T07:34:33;98607.66;;;19.80;100.00
50734;BME280;36701;51.798;19.474;2022-08-01T07:36:59;98585.94;;;19.75;100.00
50734;BME280;36701;51.798;19.474;2022-08-01T07:39:26;98589.03;;;19.82;100.00
50734;BME280;36701;51.798;19.474;2022-08-01T07:41:52;98600.75;;;20.00;100.00
50734;BME280;36701;51.798;19.474;2022-08-01T07:44:19;98589.97;;;20.04;100.00
50734;BME280;36701;51.798;19.474;2022-08-01T07:46:45;98544.16;;;19.74;100.00
50734;BME280;36701;51.798;19.474;2022-08-01T07:49:11;98581.63;;;20.09;100.00
50734;BME280;36701;51.798;19.474;2022-08-01T07:51:38;98622.88;;;20.42;100.00
50734;BME280;36701;51.798;19.474;2022-08-01T07:54:05;98623.34;;;20.36;100.00
50734;BME280;36701;51.798;19.474;2022-08-01T07:56:31;98614.37;;;20.26;100.00
50734;BME280;36701;51.798;19.474;2022-08-01T07:58:58;98591.06;;;20.11;100.00
50734;BME280;36701;51.798;19.474;2022-08-01T08:01:24;98594.47;;;19.82;100.00
50734;BME280;36701;51.798;19.474;2022-08-01T08:03:50;98628.13;;;20.56;100.00
50734;BME280;36701;51.798;19.474;2022-08-01T08:06:17;98612.56;;;20.57;100.00
50734;BME280;36701;51.798;19.474;2022-08-01T08:08:43;98612.94;;;20.85;100.00
50734;BME280;36701;51.798;19.474;2022-08-01T08:11:09;98615.88;;;20.80;100.00
50734;BME280;36701;51.798;19.474;2022-08-01T08:13:36;98610.34;;;20.97;100.00
50734;BME280;36701;51.798;19.474;2022-08-01T08:16:03;98609.28;;;21.11;100.00
50734;BME280;36701;51.798;19.474;2022-08-01T08:18:32;98612.22;;;21.35;100.00
50734;BME280;36701;51.798;19.474;2022-08-01T08:20:58;98583.13;;;21.22;100.00
50734;BME280;36701;51.798;19.474;2022-08-01T08:23:24;98579.94;;;21.20;100.00
50734;BME280;36701;51.798;19.474;2022-08-01T08:26:10;98616.19;;;21.47;100.00
50734;BME280;36701;51.798;19.474;2022-08-01T08:28:37;98584.41;;;20.95;100.00
50734;BME280;36701;51.798;19.474;2022-08-01T08:31:03;98583.66;;;21.15;100.00
50734;BME280;36701;51.798;19.474;2022-08-01T08:33:30;98610.81;;;21.29;100.00
50734;BME280;36701;51.798;19.474;2022-08-01T08:35:56;98607.78;;;21.52;100.00
50734;BME280;36701;51.798;19.474;2022-08-01T08:38:23;98626.19;;;21.72;100.00
50734;BME280;36701;51.798;19.474;2022-08-01T08:40:52;98619.84;;;21.81;100.00
50734;BME280;36701;51.798;19.474;2022-08-01T08:43:19;98597.53;;;21.91;100.00
50734;BME280;36701;51.798;19.474;2022-08-01T08:45:46;98574.94;;;21.52;100.00
50734;BME280;36701;51.798;19.474;2022-08-01T08:48:13;98603.59;;;21.75;100.00
50734;BME280;36701;51.798;19.474;2022-08-01T08:50:41;98604.56;;;21.80;100.00
50734;BME280;36701;51.798;19.474;2022-08-01T08:53:09;98601.81;;;21.80;100.00
50734;BME280;36701;51.798;19.474;2022-08-01T08:55:36;98604.03;;;22.20;100.00
50734;BME280;36701;51.798;19.474;2022-08-01T08:58:04;98613.69;;;22.38;100.00
50734;BME280;36701;51.798;19.474;2022-08-01T09:00:32;98629.53;;;22.54;100.00
50734;BME280;36701;51.798;19.474;2022-08-01T09:03:00;98614.03;;;22.82;100.00
50734;BME280;36701;51.798;19.474;2022-08-01T09:05:26;98626.75;;;23.12;100.00
50734;BME280;36701;51.798;19.474;2022-08-01T09:07:53;98633.88;;;22.67;100.00
50734;BME280;36701;51.798;19.474;2022-08-01T09:10:20;98630.31;;;23.25;100.00
50734;BME280;36701;51.798;19.474;2022-08-01T09:13:12;98609.47;;;22.87;100.00
50734;BME280;36701;51.798;19.474;2022-08-01T09:15:51;98634.47;;;23.18;100.00
50734;BME280;36701;51.798;19.474;2022-08-01T09:18:28;98642.09;;;23.13;100.00
50734;BME280;36701;51.798;19.474;2022-08-01T09:21:07;98603.75;;;23.04;100.00
50734;BME280;36701;51.798;19.474;2022-08-01T09:23:36;98636.28;;;23.14;100.00
50734;BME280;36701;51.798;19.474;2022-08-01T09:26:06;98642.22;;;23.29;100.00
50734;BME280;36701;51.798;19.474;2022-08-01T09:28:32;98613.56;;;23.54;100.00
50734;BME280;36701;51.798;19.474;2022-08-01T09:31:05;98613.13;;;23.52;100.00
50734;BME280;36701;51.798;19.474;2022-08-01T09:33:53;98641.50;;;23.56;100.00
50734;BME280;36701;51.798;19.474;2022-08-01T09:36:22;98645.84;;;23.70;100.00
50734;BME280;36701;51.798;19.474;2022-08-01T09:38:49;98604.47;;;23.79;100.00
50734;BME280;36701;51.798;19.474;2022-08-01T09:41:16;98640.09;;;23.87;100.00
50734;BME280;36701;51.798;19.474;2022-08-01T09:43:49;98643.94;;;24.11;100.00
50734;BME280;36701;51.798;19.474;2022-08-01T09:46:16;98644.78;;;23.87;100.00
50734;BME280;36701;51.798;19.474;2022-08-01T09:49:03;98643.87;;;23.95;100.00
50734;BME280;36701;51.798;19.474;2022-08-01T09:51:34;98638.47;;;23.99;100.00
50734;BME280;36701;51.798;19.474;2022-08-01T09:54:02;98619.47;;;23.93;100.00
50734;BME280;36701;51.798;19.474;2022-08-01T09:56:38;98612.91;;;23.45;100.00
50734;BME280;36701;51.798;19.474;2022-08-01T09:59:05;98638.03;;;23.97;100.00
50734;BME280;36701;51.798;19.474;2022-08-01T10:01:49;98646.69;;;24.55;100.00
50734;BME280;36701;51.798;19.474;2022-08-01T10:04:19;98601.38;;;24.81;100.00
50734;BME280;36701;51.798;19.474;2022-08-01T10:06:47;98653.66;;;24.65;100.00
50734;BME280;36701;51.798;19.474;2022-08-01T10:09:32;98597.00;;;24.48;100.00
50734;BME280;36701;51.798;19.474;2022-08-01T10:12:00;98630.88;;;24.52;100.00
50734;BME280;36701;51.798;19.474;2022-08-01T10:14:28;98631.50;;;24.17;100.00
50734;BME280;36701;51.798;19.474;2022-08-01T10:16:57;98648.62;;;24.39;100.00
50734;BME280;36701;51.798;19.474;2022-08-01T10:19:25;98621.09;;;24.67;100.00
50734;BME280;36701;51.798;19.474;2022-08-01T10:21:54;98653.59;;;25.09;100.00
50734;BME280;36701;51.798;19.474;2022-08-01T10:24:21;98646.75;;;25.19;100.00
50734;BME280;36701;51.798;19.474;2022-08-01T10:26:51;98650.84;;;25.25;100.00
50734;BME280;36701;51.798;19.474;2022-08-01T10:29:19;98643.03;;;24.95;100.00
50734;BME280;36701;51.798;19.474;2022-08-01T10:31:46;98638.25;;;24.92;100.00
50734;BME280;36701;51.798;19.474;2022-08-01T10:34:13;98636.22;;;24.89;100.00
50734;BME280;36701;51.798;19.474;2022-08-01T10:36:45;98621.81;;;24.96;100.00
50734;BME280;36701;51.798;19.474;2022-08-01T10:39:12;98630.25;;;25.35;100.00
50734;BME280;36701;51.798;19.474;2022-08-01T10:41:39;98633.09;;;25.07;100.00
50734;BME280;36701;51.798;19.474;2022-08-01T10:44:09;98609.09;;;25.23;100.00
50734;BME280;36701;51.798;19.474;2022-08-01T10:46:38;98632.69;;;25.91;100.00
50734;BME280;36701;51.798;19.474;2022-08-01T10:49:10;98621.97;;;25.35;100.00
50734;BME280;36701;51.798;19.474;2022-08-01T10:51:39;98621.72;;;25.24;100.00
50734;BME280;36701;51.798;19.474;2022-08-01T10:54:08;98598.78;;;25.36;100.00
50734;BME280;36701;51.798;19.474;2022-08-01T10:56:47;98604.03;;;24.77;100.00
50734;BME280;36701;51.798;19.474;2022-08-01T10:59:21;98626.47;;;25.27;100.00
50734;BME280;36701;51.798;19.474;2022-08-01T11:02:04;98618.44;;;25.89;100.00
50734;BME280;36701;51.798;19.474;2022-08-01T11:04:53;98606.09;;;26.42;100.00
50734;BME280;36701;51.798;19.474;2022-08-01T11:07:22;98628.56;;;26.21;100.00
50734;BME280;36701;51.798;19.474;2022-08-01T11:10:03;98620.72;;;25.48;100.00
50734;BME280;36701;51.798;19.474;2022-08-01T11:12:40;98602.41;;;25.76;100.00
50734;BME280;36701;51.798;19.474;2022-08-01T11:20:18;98620.34;;;26.44;100.00
50734;BME280;36701;51.798;19.474;2022-08-01T11:30:46;98609.97;;;25.98;100.00
50734;BME280;36701;51.798;19.474;2022-08-01T11:33:14;98595.56;;;25.50;100.00
50734;BME280;36701;51.798;19.474;2022-08-01T11:36:19;98637.19;;;26.19;100.00
50734;BME280;36701;51.798;19.474;2022-08-01T11:39:33;98627.31;;;26.80;100.00
50734;BME280;36701;51.798;19.474;2022-08-01T11:41:37;98627.22;;;25.95;100.00
50734;BME280;36701;51.798;19.474;2022-08-01T11:52:12;98621.37;;;25.97;100.00
50734;BME280;36701;51.798;19.474;2022-08-01T11:57:13;98626.94;;;26.39;100.00
50734;BME280;36701;51.798;19.474;2022-08-01T11:59:42;98603.44;;;25.87;99.47
50734;BME280;36701;51.798;19.474;2022-08-01T12:04:48;98555.44;;;26.54;100.00
50734;BME280;36701;51.798;19.474;2022-08-01T12:07:17;98632.94;;;27.34;94.63
50734;BME280;36701;51.798;19.474;2022-08-01T12:09:43;98625.09;;;26.90;100.00
50734;BME280;36701;51.798;19.474;2022-08-01T12:12:10;98637.81;;;27.44;100.00
50734;BME280;36701;51.798;19.474;2022-08-01T12:14:38;98636.31;;;27.77;96.81
50734;BME280;36701;51.798;19.474;2022-08-01T12:17:04;98609.38;;;28.01;94.85
50734;BME280;36701;51.798;19.474;2022-08-01T12:19:31;98629.75;;;27.09;87.71
50734;BME280;36701;51.798;19.474;2022-08-01T12:22:11;98626.84;;;27.48;91.85
50734;BME280;36701;51.798;19.474;2022-08-01T12:24:41;98621.13;;;27.64;83.54
50734;BME280;36701;51.798;19.474;2022-08-01T12:27:09;98633.00;;;27.95;84.38
50734;BME280;36701;51.798;19.474;2022-08-01T12:29:41;98625.19;;;28.00;76.81
50734;BME280;36701;51.798;19.474;2022-08-01T12:34:54;98586.31;;;27.93;73.09
50734;BME280;36701;51.798;19.474;2022-08-01T12:37:23;98628.37;;;27.45;72.68
50734;BME280;36701;51.798;19.474;2022-08-01T12:39:50;98623.78;;;28.17;67.07
50734;BME280;36701;51.798;19.474;2022-08-01T12:42:16;98623.50;;;28.26;71.25
50734;BME280;36701;51.798;19.474;2022-08-01T12:44:45;98562.28;;;28.35;70.92
50734;BME280;36701;51.798;19.474;2022-08-01T12:47:13;98597.13;;;29.25;64.29
50734;BME280;36701;51.798;19.474;2022-08-01T12:49:42;98631.19;;;29.22;71.48
50734;BME280;36701;51.798;19.474;2022-08-01T12:52:10;98629.47;;;28.66;80.14
50734;BME280;36701;51.798;19.474;2022-08-01T12:54:59;98612.41;;;29.05;79.14
50734;BME280;36701;51.798;19.474;2022-08-01T12:57:26;98627.03;;;28.23;78.23
50734;BME280;36701;51.798;19.474;2022-08-01T12:59:52;98597.16;;;28.39;78.50
50734;BME280;36701;51.798;19.474;2022-08-01T13:02:19;98633.16;;;28.05;72.25
50734;BME280;36701;51.798;19.474;2022-08-01T13:04:49;98628.16;;;27.31;78.32
50734;BME280;36701;51.798;19.474;2022-08-01T13:07:17;98601.06;;;27.70;76.37
50734;BME280;36701;51.798;19.474;2022-08-01T13:09:52;98617.53;;;28.24;76.84
50734;BME280;36701;51.798;19.474;2022-08-01T13:12:26;98638.53;;;28.29;72.69
50734;BME280;36701;51.798;19.474;2022-08-01T13:14:52;98636.09;;;27.89;74.58
50734;BME280;36701;51.798;19.474;2022-08-01T13:17:32;98630.91;;;27.58;83.18
50734;BME280;36701;51.798;19.474;2022-08-01T13:19:59;98630.66;;;27.97;90.39
50734;BME280;36701;51.798;19.474;2022-08-01T13:22:35;98630.94;;;28.18;90.49
50734;BME280;36701;51.798;19.474;2022-08-01T13:25:13;98609.25;;;27.94;86.56
50734;BME280;36701;51.798;19.474;2022-08-01T13:27:40;98631.84;;;28.30;84.14